Time;durP1;ratioP1;P1;durP2;ratioP2;P2;SDS_P1;SDS_P2;PMS_P1;PMS_P2;Temp;Humidity;BMP_temperature;BMP_pressure;BME280_temperature;BME280_humidity;BME280_pressure;Samples;Min_cycle;Max_cycle;Signal;HPM_P1;HPM_P2
2023/05/05 00:01:14;;;;;;;0.30;0.20;;;;;;;13.15;100.00;95558.75;5075614;28;20521;-58
2023/05/05 00:03:42;;;;;;;0.40;0.30;;;;;;;11.58;100.00;95372.91;5075101;28;20429;-58
2023/05/05 00:06:12;;;;;;;0.77;0.27;;;;;;;13.20;100.00;95561.38;5075256;28;20487;-58
2023/05/05 00:08:40;;;;;;;0.37;0.30;;;;;;;13.42;100.00;95566.25;5074760;28;20473;-58
2023/05/05 00:11:09;;;;;;;0.63;0.40;;;;;;;13.37;100.00;95556.44;5075007;28;20480;-58
2023/05/05 00:13:38;;;;;;;0.40;0.33;;;;;;;13.21;100.00;95555.78;5074516;28;20521;-59
2023/05/05 00:16:07;;;;;;;0.63;0.60;;;;;;;13.03;100.00;95564.41;5074898;28;20433;-59
2023/05/05 00:18:36;;;;;;;0.30;0.30;;;;;;;13.24;100.00;95570.38;5075014;28;20457;-59
2023/05/05 00:21:04;;;;;;;0.67;0.40;;;;;;;13.43;100.00;95567.84;5075018;28;20823;-59
2023/05/05 00:23:34;;;;;;;0.30;0.20;;;;;;;13.58;100.00;95562.38;5074788;28;20438;-59
2023/05/05 00:26:02;;;;;;;0.40;0.23;;;;;;;13.65;100.00;95555.63;5074542;28;20505;-59
2023/05/05 00:28:30;;;;;;;0.30;0.30;;;;;;;13.48;100.00;95554.47;5074598;28;20481;-59
2023/05/05 00:30:59;;;;;;;0.70;0.60;;;;;;;13.45;100.00;95547.84;5074080;28;20524;-59
2023/05/05 00:33:27;;;;;;;0.50;0.40;;;;;;;13.30;100.00;95521.38;5074450;28;20433;-59
2023/05/05 00:35:55;;;;;;;0.50;0.37;;;;;;;13.12;100.00;95511.41;5074185;28;20445;-58
2023/05/05 00:38:24;;;;;;;0.43;0.43;;;;;;;13.22;100.00;95536.06;5074517;28;20477;-58
2023/05/05 00:40:53;;;;;;;0.40;0.30;;;;;;;13.46;100.00;95549.41;5074659;28;20442;-58
2023/05/05 00:43:22;;;;;;;0.73;0.73;;;;;;;13.26;100.00;95541.63;5074504;28;20471;-59
2023/05/05 00:45:57;;;;;;;0.60;0.30;;;;;;;12.85;100.00;95532.38;5073753;28;20445;-59
2023/05/05 00:48:25;;;;;;;0.40;0.30;;;;;;;12.43;100.00;95532.91;5074045;28;21086;-59
2023/05/05 00:50:54;;;;;;;0.60;0.50;;;;;;;12.35;100.00;95536.94;5074124;28;20445;-59
2023/05/05 00:53:23;;;;;;;1.63;0.57;;;;;;;12.60;100.00;95534.13;5074051;28;20442;-59
2023/05/05 00:55:53;;;;;;;0.43;0.33;;;;;;;12.45;100.00;95536.06;5074052;28;20473;-59
2023/05/05 00:58:21;;;;;;;0.40;0.30;;;;;;;12.58;100.00;95524.84;5074210;28;20441;-59
2023/05/05 01:00:50;;;;;;;0.40;0.30;;;;;;;12.90;100.00;95524.34;5073970;28;20438;-59
2023/05/05 01:03:18;;;;;;;0.30;0.20;;;;;;;12.93;100.00;95513.16;5073965;28;20941;-59
2023/05/05 01:05:57;;;;;;;0.30;0.20;;;;;;;12.81;100.00;95504.72;5073978;28;20821;-59
2023/05/05 01:08:38;;;;;;;0.50;0.40;;;;;;;13.06;100.00;95501.84;5073487;28;20469;-59
2023/05/05 01:11:17;;;;;;;0.40;0.20;;;;;;;12.71;100.00;95421.31;5073311;28;20941;-59
2023/05/05 01:13:54;;;;;;;0.50;0.27;;;;;;;13.26;100.00;95502.50;5073904;28;20856;-59
2023/05/05 01:16:27;;;;;;;0.97;0.97;;;;;;;13.21;100.00;95507.88;5073503;28;20445;-59
2023/05/05 01:19:03;;;;;;;0.50;0.47;;;;;;;12.99;100.00;95514.69;5049003;28;20495;-59
2023/05/05 01:21:38;;;;;;;0.40;0.20;;;;;;;12.50;100.00;95510.25;5073485;28;20941;-59
2023/05/05 01:24:48;;;;;;;0.40;0.20;;;;;;;12.43;100.00;95517.75;5073624;28;20967;-59
2023/05/05 01:27:41;;;;;;;0.43;0.30;;;;;;;12.66;100.00;95506.44;5022496;28;20467;-59
2023/05/05 01:30:20;;;;;;;0.40;0.30;;;;;;;12.47;100.00;95492.19;5073092;28;20442;-59
2023/05/05 01:32:54;;;;;;;0.30;0.20;;;;;;;12.44;100.00;95510.59;5073483;28;20891;-59
2023/05/05 01:35:30;;;;;;;0.50;0.37;;;;;;;12.65;100.00;95499.50;5073833;28;20499;-59
2023/05/05 01:38:03;;;;;;;0.37;0.30;;;;;;;12.60;100.00;95506.72;5073229;28;20957;-59
2023/05/05 01:40:37;;;;;;;0.50;0.30;;;;;;;12.25;100.00;95510.41;5073380;28;20480;-59
2023/05/05 01:43:08;;;;;;;0.40;0.27;;;;;;;11.90;100.00;95513.25;5073061;28;20441;-59
2023/05/05 01:45:39;;;;;;;0.40;0.30;;;;;;;11.64;100.00;95485.97;5073577;28;20534;-59
2023/05/05 01:48:11;;;;;;;0.30;0.20;;;;;;;12.08;100.00;95510.78;5073016;28;20477;-59
2023/05/05 01:50:41;;;;;;;0.37;0.30;;;;;;;12.26;100.00;95506.69;5072730;28;20525;-59
2023/05/05 01:53:11;;;;;;;0.40;0.20;;;;;;;12.22;100.00;95513.63;5072877;28;20459;-59
2023/05/05 01:55:40;;;;;;;0.40;0.20;;;;;;;11.85;100.00;95518.59;5072685;28;20477;-59
2023/05/05 01:58:11;;;;;;;0.70;0.57;;;;;;;11.64;100.00;95523.13;5073132;28;20786;-59
2023/05/05 02:00:40;;;;;;;0.40;0.30;;;;;;;11.64;100.00;95517.81;5072960;28;20434;-59
2023/05/05 02:03:13;;;;;;;0.40;0.30;;;;;;;11.18;100.00;95463.31;5072974;28;20441;-59
2023/05/05 02:05:43;;;;;;;0.40;0.37;;;;;;;11.31;100.00;95519.22;5072758;28;20924;-59
2023/05/05 02:08:12;;;;;;;0.40;0.30;;;;;;;11.73;100.00;95518.91;5072185;28;20910;-59
2023/05/05 02:10:41;;;;;;;0.40;0.27;;;;;;;12.07;100.00;95517.16;5071850;28;20449;-59
2023/05/05 02:13:12;;;;;;;0.60;0.60;;;;;;;12.28;100.00;95522.34;5072041;28;20437;-59
2023/05/05 02:15:42;;;;;;;0.40;0.30;;;;;;;12.47;100.00;95515.34;5071829;28;20437;-59
2023/05/05 02:18:12;;;;;;;0.30;0.20;;;;;;;12.33;100.00;95511.69;5072144;28;20442;-59
2023/05/05 02:20:41;;;;;;;0.40;0.20;;;;;;;12.67;100.00;95508.00;5072897;28;20469;-59
2023/05/05 02:23:10;;;;;;;0.33;0.27;;;;;;;12.62;100.00;95512.59;5072310;28;20476;-58
2023/05/05 02:25:42;;;;;;;2.63;1.63;;;;;;;12.29;100.00;95514.13;5072144;28;20445;-58
2023/05/05 02:28:15;;;;;;;0.40;0.37;;;;;;;12.53;100.00;95515.03;5072123;28;20434;-59
2023/05/05 02:30:49;;;;;;;0.40;0.40;;;;;;;12.89;100.00;95509.44;5072370;28;20564;-58
2023/05/05 02:33:23;;;;;;;0.40;0.33;;;;;;;13.05;100.00;95508.25;5072191;28;20989;-58
2023/05/05 02:35:54;;;;;;;0.80;0.40;;;;;;;12.85;100.00;95511.88;5072011;28;20536;-58
2023/05/05 02:38:28;;;;;;;0.30;0.20;;;;;;;12.94;100.00;95501.44;5071960;28;20510;-58
2023/05/05 02:40:59;;;;;;;0.43;0.40;;;;;;;12.37;100.00;95444.41;5070929;28;20528;-58
2023/05/05 02:43:31;;;;;;;0.40;0.30;;;;;;;12.61;100.00;95506.47;5071727;28;20521;-58
2023/05/05 02:45:59;;;;;;;0.60;0.47;;;;;;;12.90;100.00;95503.88;5071308;28;20438;-58
2023/05/05 02:48:29;;;;;;;0.40;0.40;;;;;;;12.65;100.00;95506.69;5072124;28;20852;-58
2023/05/05 02:50:58;;;;;;;3.33;0.50;;;;;;;12.63;100.00;95499.00;5071486;28;20442;-58
2023/05/05 02:53:27;;;;;;;0.40;0.30;;;;;;;12.64;100.00;95505.13;5072028;28;20515;-58
2023/05/05 02:56:09;;;;;;;0.83;0.83;;;;;;;12.24;100.00;95506.19;5071704;28;20430;-58
2023/05/05 02:58:46;;;;;;;0.40;0.30;;;;;;;12.31;100.00;95517.31;5071631;28;20870;-58
2023/05/05 03:01:26;;;;;;;0.50;0.30;;;;;;;12.08;100.00;95513.44;5071687;28;20448;-58
2023/05/05 03:04:03;;;;;;;0.40;0.30;;;;;;;11.86;100.00;95504.25;5071578;28;20439;-58
2023/05/05 03:06:39;;;;;;;0.40;0.30;;;;;;;11.86;100.00;95514.88;5072008;28;20520;-58
2023/05/05 03:09:10;;;;;;;0.50;0.40;;;;;;;11.21;100.00;95513.16;5071318;28;20469;-59
2023/05/05 03:11:44;;;;;;;0.90;0.40;;;;;;;11.02;100.00;95509.47;5071314;28;20433;-60
2023/05/05 03:14:15;;;;;;;0.30;0.20;;;;;;;10.76;100.00;95506.03;5071533;28;20446;-59
2023/05/05 03:16:45;;;;;;;0.50;0.40;;;;;;;11.24;100.00;95504.66;5070951;28;20477;-59
2023/05/05 03:19:18;;;;;;;0.40;0.20;;;;;;;11.52;100.00;95504.06;5071022;28;20442;-59
2023/05/05 03:21:47;;;;;;;0.30;0.20;;;;;;;11.77;100.00;95516.47;5070733;28;20974;-59
2023/05/05 03:24:17;;;;;;;0.60;0.37;;;;;;;11.66;100.00;95509.59;5071086;28;20442;-59
2023/05/05 03:26:46;;;;;;;0.57;0.57;;;;;;;11.41;100.00;95470.66;5070992;28;20477;-59
2023/05/05 03:29:15;;;;;;;0.50;0.40;;;;;;;11.46;100.00;95474.09;5071173;28;20552;-59
2023/05/05 03:31:44;;;;;;;0.40;0.30;;;;;;;11.88;100.00;95518.03;5070985;28;20868;-59
2023/05/05 03:34:12;;;;;;;0.40;0.30;;;;;;;11.82;100.00;95524.44;5071256;28;20515;-59
2023/05/05 03:36:42;;;;;;;0.60;0.60;;;;;;;11.49;100.00;95515.22;5066142;28;20438;-59
2023/05/05 03:39:10;;;;;;;0.50;0.50;;;;;;;11.82;100.00;95533.19;5065197;28;20469;-58
2023/05/05 03:41:39;;;;;;;0.40;0.30;;;;;;;11.63;100.00;95502.97;5070994;28;20528;-59
2023/05/05 03:44:07;;;;;;;0.30;0.20;;;;;;;11.73;100.00;95528.72;5071186;28;20488;-58
2023/05/05 03:46:35;;;;;;;0.90;0.40;;;;;;;11.63;100.00;95540.16;5071177;28;20950;-59
2023/05/05 03:49:04;;;;;;;0.70;0.70;;;;;;;11.82;100.00;95548.34;5071196;28;20465;-58
2023/05/05 03:51:32;;;;;;;1.23;0.70;;;;;;;11.82;100.00;95543.03;5071270;28;20445;-58
2023/05/05 03:54:02;;;;;;;0.53;0.53;;;;;;;11.77;100.00;95553.66;5071246;28;20432;-60
2023/05/05 03:56:30;;;;;;;0.40;0.30;;;;;;;11.62;100.00;95529.78;5071005;28;20473;-59
2023/05/05 03:58:58;;;;;;;0.70;0.70;;;;;;;11.71;100.00;95555.56;5070777;28;20476;-60
2023/05/05 04:01:28;;;;;;;0.80;0.43;;;;;;;12.09;100.00;95552.22;5070963;28;20442;-60
2023/05/05 04:03:57;;;;;;;0.97;0.97;;;;;;;12.25;100.00;95555.59;5070365;28;20973;-60
2023/05/05 04:06:25;;;;;;;0.33;0.27;;;;;;;12.47;100.00;95553.34;5070705;28;20884;-60
2023/05/05 04:08:53;;;;;;;0.30;0.30;;;;;;;12.47;100.00;95545.38;5071005;28;20972;-60
2023/05/05 04:11:23;;;;;;;0.50;0.30;;;;;;;12.14;100.00;95558.59;5071021;28;20437;-60
2023/05/05 04:13:51;;;;;;;1.07;0.57;;;;;;;12.06;100.00;95559.94;5070472;28;20442;-60
2023/05/05 04:16:20;;;;;;;0.77;0.60;;;;;;;12.30;100.00;95560.88;5071220;28;20811;-60
2023/05/05 04:18:48;;;;;;;0.77;0.77;;;;;;;12.16;100.00;95561.75;5044750;28;20437;-59
2023/05/05 04:21:17;;;;;;;1.60;1.50;;;;;;;12.02;100.00;95566.84;5070720;28;20509;-60
2023/05/05 04:23:45;;;;;;;0.30;0.30;;;;;;;11.98;100.00;95571.13;5070914;28;20449;-60
2023/05/05 04:26:13;;;;;;;0.40;0.30;;;;;;;11.85;100.00;95548.59;5070792;28;20566;-60
2023/05/05 04:28:44;;;;;;;0.53;0.50;;;;;;;11.62;100.00;95574.91;5070444;28;20507;-60
2023/05/05 04:31:12;;;;;;;0.40;0.30;;;;;;;11.45;100.00;95575.22;5070442;28;20473;-60
2023/05/05 04:33:41;;;;;;;0.50;0.43;;;;;;;10.82;100.00;95502.31;5070542;28;20475;-59
2023/05/05 04:36:09;;;;;;;0.40;0.30;;;;;;;11.74;100.00;95572.81;5070362;28;20974;-59
2023/05/05 04:38:37;;;;;;;0.50;0.40;;;;;;;11.91;100.00;95575.94;5070847;28;20525;-59
2023/05/05 04:41:06;;;;;;;0.50;0.47;;;;;;;12.04;100.00;95570.81;5070345;28;20499;-59
2023/05/05 04:43:34;;;;;;;0.33;0.20;;;;;;;11.79;100.00;95575.44;5070611;28;20447;-59
2023/05/05 04:46:04;;;;;;;0.70;0.40;;;;;;;12.02;100.00;95572.16;5070841;28;20449;-59
2023/05/05 04:48:33;;;;;;;0.30;0.20;;;;;;;12.48;100.00;95564.78;5061982;28;20486;-59
2023/05/05 04:51:04;;;;;;;1.00;0.47;;;;;;;12.69;100.00;95567.06;5072645;28;20485;-58
2023/05/05 04:53:33;;;;;;;0.83;0.83;;;;;;;12.97;100.00;95567.38;5074225;28;20437;-58
2023/05/05 04:56:01;;;;;;;0.50;0.47;;;;;;;13.17;100.00;95567.25;5073731;28;20441;-59
2023/05/05 04:58:29;;;;;;;0.50;0.43;;;;;;;13.15;100.00;95564.88;5073650;28;20584;-59
2023/05/05 05:00:58;;;;;;;1.90;1.77;;;;;;;12.89;100.00;95565.31;5061043;28;20469;-58
2023/05/05 05:03:27;;;;;;;0.53;0.53;;;;;;;12.29;100.00;95521.31;5073554;28;20802;-58
2023/05/05 05:06:14;;;;;;;1.13;1.13;;;;;;;12.77;100.00;95563.78;5074128;28;20442;-59
2023/05/05 05:08:42;;;;;;;0.60;0.30;;;;;;;12.84;100.00;95557.38;5073540;28;20437;-59
2023/05/05 05:11:11;;;;;;;0.40;0.30;;;;;;;13.22;100.00;95554.72;5074029;28;20479;-59
2023/05/05 05:13:40;;;;;;;0.80;0.63;;;;;;;13.36;100.00;95554.84;5073715;28;20484;-59
2023/05/05 05:16:08;;;;;;;2.07;1.87;;;;;;;13.20;100.00;95556.06;5073743;28;20470;-60
2023/05/05 05:18:38;;;;;;;1.77;1.63;;;;;;;13.55;100.00;95546.94;5073714;28;20433;-60
2023/05/05 05:21:06;;;;;;;0.40;0.40;;;;;;;13.63;100.00;95555.13;5074051;28;20429;-60
2023/05/05 05:23:35;;;;;;;1.37;1.00;;;;;;;13.84;100.00;95553.00;5073303;28;20544;-60
2023/05/05 05:26:04;;;;;;;0.57;0.50;;;;;;;13.95;100.00;95510.00;5072341;28;20485;-61
2023/05/05 05:28:32;;;;;;;2.00;0.80;;;;;;;14.51;100.00;95550.09;5071395;28;20438;-61
2023/05/05 05:31:01;;;;;;;0.87;0.87;;;;;;;14.58;100.00;95558.53;5071816;28;20816;-60
2023/05/05 05:33:29;;;;;;;0.50;0.50;;;;;;;14.64;100.00;95559.25;5072117;28;20437;-60
2023/05/05 05:35:59;;;;;;;0.70;0.67;;;;;;;14.47;100.00;95548.28;5071748;28;20545;-61
2023/05/05 05:38:27;;;;;;;2.97;0.40;;;;;;;14.57;100.00;95550.81;5071746;28;20438;-61
2023/05/05 05:40:55;;;;;;;4.70;2.70;;;;;;;14.08;100.00;95559.16;5072106;28;20978;-61
2023/05/05 05:43:23;;;;;;;1.57;1.07;;;;;;;13.18;100.00;95556.31;5073042;28;20430;-61
2023/05/05 05:45:52;;;;;;;1.33;1.23;;;;;;;13.28;100.00;95558.91;5073271;28;20433;-61
2023/05/05 05:48:23;;;;;;;1.40;1.00;;;;;;;13.04;100.00;95562.53;5073360;28;20503;-61
2023/05/05 05:50:52;;;;;;;0.90;0.57;;;;;;;13.19;100.00;95554.47;5073298;28;20473;-62
2023/05/05 05:53:21;;;;;;;1.27;1.27;;;;;;;12.87;100.00;95546.19;5073721;28;20434;-62
2023/05/05 05:55:50;;;;;;;1.53;1.47;;;;;;;12.60;100.00;95552.72;5073311;28;20441;-62
2023/05/05 05:58:18;;;;;;;0.90;0.50;;;;;;;12.99;100.00;95551.94;5072922;28;20475;-62
2023/05/05 06:00:48;;;;;;;0.40;0.30;;;;;;;13.30;100.00;95492.88;5059825;28;20468;-62
2023/05/05 06:03:16;;;;;;;1.00;1.00;;;;;;;13.21;100.00;95545.13;5073272;28;20430;-62
2023/05/05 06:05:45;;;;;;;1.23;1.13;;;;;;;13.26;100.00;95546.94;5072715;28;20487;-62
2023/05/05 06:08:13;;;;;;;0.47;0.37;;;;;;;13.90;100.00;95550.03;5072447;28;20434;-62
2023/05/05 06:10:43;;;;;;;0.50;0.40;;;;;;;14.39;100.00;95540.94;5072898;28;20831;-61
2023/05/05 06:13:11;;;;;;;0.40;0.30;;;;;;;14.87;100.00;95536.25;5072743;28;20473;-61
2023/05/05 06:15:40;;;;;;;22.47;1.10;;;;;;;14.50;100.00;95539.69;5065775;28;20447;-63
2023/05/05 06:18:08;;;;;;;0.50;0.37;;;;;;;14.62;100.00;95535.50;5066702;28;20949;-62
2023/05/05 06:20:36;;;;;;;0.37;0.27;;;;;;;15.09;100.00;95534.53;5072886;28;20521;-63
2023/05/05 06:23:05;;;;;;;1.07;1.03;;;;;;;15.22;100.00;95536.47;5072513;28;20444;-62
2023/05/05 06:25:33;;;;;;;0.40;0.33;;;;;;;15.50;100.00;95533.88;5072291;28;20445;-62
2023/05/05 06:28:04;;;;;;;0.30;0.30;;;;;;;15.70;100.00;95533.50;5072183;28;20813;-63
2023/05/05 06:30:33;;;;;;;0.87;0.40;;;;;;;16.11;100.00;95523.63;5072634;28;20479;-64
2023/05/05 06:33:01;;;;;;;1.40;1.30;;;;;;;16.68;100.00;95526.69;5072724;28;20438;-61
2023/05/05 06:35:30;;;;;;;1.03;1.00;;;;;;;17.03;100.00;95517.84;5072555;28;21019;-61
2023/05/05 06:37:59;;;;;;;0.70;0.57;;;;;;;17.45;100.00;95514.66;5072417;28;20470;-61
2023/05/05 06:40:27;;;;;;;1.27;1.10;;;;;;;17.03;98.79;95509.81;5072078;28;20441;-62
2023/05/05 06:42:55;;;;;;;0.63;0.63;;;;;;;16.68;100.00;95513.31;5072179;28;20446;-62
2023/05/05 06:45:25;;;;;;;1.40;0.77;;;;;;;16.90;100.00;95513.34;5072406;28;20469;-65
2023/05/05 06:47:54;;;;;;;1.00;0.73;;;;;;;16.59;100.00;95499.88;5072158;28;20457;-64
2023/05/05 06:50:22;;;;;;;1.07;0.97;;;;;;;16.74;100.00;95509.44;5072271;28;20444;-63
2023/05/05 06:52:51;;;;;;;1.43;1.30;;;;;;;16.82;100.00;95506.03;5072000;28;20921;-64
2023/05/05 06:55:20;;;;;;;0.90;0.90;;;;;;;16.82;100.00;95500.69;5071765;28;20876;-63
2023/05/05 06:57:49;;;;;;;5.43;0.90;;;;;;;17.24;99.84;95504.75;5072171;28;20437;-62
2023/05/05 07:00:18;;;;;;;0.63;0.63;;;;;;;17.69;99.23;95498.22;5071706;28;20440;-62
2023/05/05 07:02:48;;;;;;;0.60;0.60;;;;;;;17.83;95.38;95487.41;5071696;28;20476;-60
2023/05/05 07:05:16;;;;;;;0.90;0.80;;;;;;;17.99;90.84;95469.78;5071470;28;20486;-60
2023/05/05 07:07:51;;;;;;;0.50;0.30;;;;;;;19.59;85.54;95485.44;5071732;28;20438;-60
2023/05/05 07:10:20;;;;;;;0.63;0.60;;;;;;;18.46;85.21;95444.78;5070909;28;20448;-60
2023/05/05 07:12:48;;;;;;;0.40;0.30;;;;;;;19.35;89.08;95489.75;5071641;28;20477;-59
2023/05/05 07:15:17;;;;;;;0.60;0.60;;;;;;;18.75;86.91;95482.53;5071848;28;20430;-60
2023/05/05 07:17:57;;;;;;;0.40;0.30;;;;;;;19.10;83.87;95483.28;5072001;28;20445;-62
2023/05/05 07:20:26;;;;;;;0.87;0.50;;;;;;;20.30;81.15;95482.13;5045304;28;20460;-62
2023/05/05 07:22:54;;;;;;;0.50;0.40;;;;;;;20.92;75.96;95415.56;5071385;28;20506;-63
2023/05/05 07:25:22;;;;;;;0.60;0.47;;;;;;;20.35;75.80;95476.53;5071553;28;20833;-64
2023/05/05 07:27:52;;;;;;;0.53;0.50;;;;;;;21.16;73.44;95474.16;5071761;28;20446;-64
2023/05/05 07:30:21;;;;;;;5.03;1.13;;;;;;;20.83;74.22;95477.59;5072050;28;20529;-65
2023/05/05 07:32:50;;;;;;;0.50;0.40;;;;;;;21.20;71.39;95467.78;5071465;28;20474;-65
2023/05/05 07:35:20;;;;;;;0.77;0.47;;;;;;;21.55;72.23;95470.91;5071580;28;20446;-69
2023/05/05 07:37:48;;;;;;;0.80;0.80;;;;;;;20.88;71.79;95473.91;5071865;28;20520;-68
2023/05/05 07:40:16;;;;;;;0.53;0.53;;;;;;;20.07;75.39;95462.75;5071998;28;20449;-69
2023/05/05 07:42:46;;;;;;;0.50;0.47;;;;;;;19.16;80.08;95433.66;5071541;28;20438;-69
2023/05/05 07:45:15;;;;;;;4.07;1.67;;;;;;;18.80;82.11;95471.63;5071535;28;20444;-68
2023/05/05 07:47:43;;;;;;;1.07;0.97;;;;;;;18.51;86.20;95487.59;5071440;28;20476;-69
2023/05/05 07:50:12;;;;;;;0.70;0.70;;;;;;;18.09;91.67;95486.38;5071705;28;20441;-72
2023/05/05 07:52:41;;;;;;;0.50;0.50;;;;;;;18.85;90.02;95481.41;5071174;28;20635;-69
2023/05/05 07:55:21;;;;;;;3.70;0.80;;;;;;;18.31;89.22;95472.06;5071127;28;20437;-69
2023/05/05 07:57:49;;;;;;;0.80;0.67;;;;;;;17.85;85.65;95487.88;5071311;28;20495;-66
2023/05/05 08:00:20;;;;;;;1.03;1.03;;;;;;;17.73;87.34;95483.91;5071257;28;20442;-68
2023/05/05 08:02:48;;;;;;;3.00;0.97;;;;;;;18.66;84.96;95479.06;5071353;28;21051;-68
2023/05/05 08:05:17;;;;;;;0.43;0.40;;;;;;;18.86;81.20;95488.38;5070771;28;20446;-68
2023/05/05 08:07:47;;;;;;;2.67;0.73;;;;;;;19.09;79.74;95472.88;5071048;28;20525;-68
2023/05/05 08:10:15;;;;;;;0.60;0.50;;;;;;;18.97;79.71;95489.66;5070943;28;20441;-68
2023/05/05 08:12:44;;;;;;;0.40;0.30;;;;;;;19.34;80.14;95480.88;5071145;28;20550;-68
2023/05/05 08:15:12;;;;;;;0.90;0.90;;;;;;;19.34;77.61;95480.09;5070527;28;20837;-68
2023/05/05 08:17:46;;;;;;;0.50;0.40;;;;;;;19.32;75.72;95485.00;5070800;28;20528;-68
2023/05/05 08:20:15;;;;;;;0.87;0.87;;;;;;;19.16;76.64;95465.13;5072006;28;20441;-68
2023/05/05 08:22:43;;;;;;;0.57;0.53;;;;;;;19.40;75.52;95486.91;5074859;28;20514;-68
2023/05/05 08:25:14;;;;;;;0.40;0.30;;;;;;;19.02;74.24;95482.19;5074776;28;20878;-65
2023/05/05 08:27:43;;;;;;;2.00;0.83;;;;;;;19.03;74.80;95483.78;5074521;28;20471;-65
2023/05/05 08:30:12;;;;;;;0.57;0.57;;;;;;;19.06;74.89;95481.56;5074655;28;20981;-65
2023/05/05 08:32:40;;;;;;;0.80;0.70;;;;;;;19.51;74.36;95478.19;5074603;28;20511;-64
2023/05/05 08:35:09;;;;;;;0.40;0.40;;;;;;;19.91;72.54;95477.88;5074492;28;21009;-65
2023/05/05 08:37:38;;;;;;;0.40;0.20;;;;;;;20.21;73.01;95464.06;5069871;28;20450;-65
2023/05/05 08:40:08;;;;;;;0.63;0.40;;;;;;;20.94;70.11;95472.59;5062147;28;20438;-66
2023/05/05 08:42:37;;;;;;;0.40;0.30;;;;;;;20.84;69.44;95481.09;5074599;28;20481;-67
2023/05/05 08:45:08;;;;;;;0.40;0.30;;;;;;;20.90;68.59;95450.13;5074708;28;20447;-68
2023/05/05 08:47:39;;;;;;;0.50;0.47;;;;;;;19.97;69.64;95474.66;5074134;28;20436;-68
2023/05/05 08:50:11;;;;;;;3.00;0.33;;;;;;;20.09;68.57;95472.06;5074306;28;20499;-68
2023/05/05 08:52:42;;;;;;;0.50;0.50;;;;;;;20.47;67.54;95471.22;5073911;28;20473;-68
2023/05/05 08:55:22;;;;;;;0.37;0.30;;;;;;;20.60;67.32;95464.78;5074481;28;20520;-68
2023/05/05 08:57:54;;;;;;;0.47;0.47;;;;;;;20.90;66.38;95456.31;5074444;28;20441;-67
2023/05/05 09:00:25;;;;;;;0.40;0.30;;;;;;;21.23;65.67;95469.03;5074080;28;20469;-68
2023/05/05 09:02:55;;;;;;;0.50;0.40;;;;;;;20.76;66.69;95473.88;5074285;28;20781;-67
2023/05/05 09:05:25;;;;;;;0.50;0.40;;;;;;;20.38;65.86;95449.75;5073889;28;20461;-67
2023/05/05 09:07:53;;;;;;;0.63;0.50;;;;;;;20.87;66.43;95472.38;5074403;28;20441;-68
2023/05/05 09:10:22;;;;;;;0.40;0.30;;;;;;;21.21;66.39;95472.06;5074261;28;20433;-67
2023/05/05 09:12:50;;;;;;;0.47;0.47;;;;;;;20.98;65.50;95461.94;5074064;28;20848;-67
2023/05/05 09:15:20;;;;;;;0.40;0.30;;;;;;;21.20;65.37;95462.38;5074036;28;20876;-67
2023/05/05 09:17:48;;;;;;;0.50;0.47;;;;;;;21.45;63.41;95469.41;5073702;28;20442;-68
2023/05/05 09:20:16;;;;;;;0.43;0.43;;;;;;;21.26;63.52;95452.19;5073538;28;20438;-69
2023/05/05 09:22:46;;;;;;;0.40;0.30;;;;;;;21.44;63.63;95459.78;5073893;28;20442;-69
2023/05/05 09:25:17;;;;;;;0.57;0.53;;;;;;;21.27;62.61;95454.56;5073951;28;20521;-69
2023/05/05 09:27:48;;;;;;;0.40;0.30;;;;;;;21.25;64.62;95462.19;5073592;28;20518;-69
2023/05/05 09:30:17;;;;;;;0.40;0.30;;;;;;;21.52;63.42;95453.50;5073775;28;20445;-69
2023/05/05 09:32:49;;;;;;;5.10;1.80;;;;;;;21.01;63.27;95456.69;5072820;28;20469;-69
2023/05/05 09:35:18;;;;;;;1.27;1.27;;;;;;;20.62;64.71;95455.28;5073467;28;20521;-70
2023/05/05 09:37:47;;;;;;;0.60;0.60;;;;;;;20.86;65.19;95457.31;5072828;28;20450;-69
2023/05/05 09:40:19;;;;;;;0.73;0.73;;;;;;;20.38;64.36;95452.47;5073229;28;20449;-69
2023/05/05 09:42:48;;;;;;;1.40;1.00;;;;;;;20.31;67.15;95462.16;5072798;28;20429;-70
2023/05/05 09:45:26;;;;;;;5.13;1.13;;;;;;;20.23;66.95;95464.59;5073696;28;20437;-69
2023/05/05 09:47:56;;;;;;;0.40;0.40;;;;;;;20.17;67.36;95455.09;5073713;28;20521;-69
2023/05/05 09:50:29;;;;;;;0.77;0.60;;;;;;;20.36;66.81;95453.91;5073290;28;20904;-68
2023/05/05 09:52:59;;;;;;;0.53;0.53;;;;;;;20.77;66.65;95441.19;5066473;28;20501;-68
2023/05/05 09:55:29;;;;;;;0.50;0.40;;;;;;;20.36;66.40;95454.69;5073727;28;20442;-68
2023/05/05 09:58:16;;;;;;;0.63;0.63;;;;;;;20.01;66.99;95456.00;5061068;28;20454;-68
2023/05/05 10:00:45;;;;;;;0.60;0.50;;;;;;;19.99;68.63;95447.44;5072185;28;20495;-67
2023/05/05 10:03:15;;;;;;;0.60;0.60;;;;;;;20.46;68.63;95448.13;5073294;28;20530;-67
2023/05/05 10:05:51;;;;;;;0.40;0.30;;;;;;;20.70;65.89;95448.25;5073100;28;21095;-69
2023/05/05 10:08:20;;;;;;;0.40;0.30;;;;;;;20.85;64.61;95444.94;5073116;28;20486;-68
2023/05/05 10:10:54;;;;;;;0.40;0.33;;;;;;;20.63;62.59;95448.78;5072742;28;20437;-69
2023/05/05 10:13:24;;;;;;;0.40;0.40;;;;;;;20.89;65.40;95440.47;5072335;28;20558;-66
2023/05/05 10:15:54;;;;;;;0.87;0.87;;;;;;;21.08;65.99;95431.91;5072867;28;20521;-68
2023/05/05 10:18:25;;;;;;;0.77;0.77;;;;;;;20.83;66.21;95434.50;5072542;28;20969;-68
2023/05/05 10:20:58;;;;;;;0.77;0.77;;;;;;;20.81;65.98;95439.44;5072479;28;20445;-72
2023/05/05 10:23:33;;;;;;;0.47;0.37;;;;;;;21.13;63.25;95426.31;5072236;28;20497;-70
2023/05/05 10:26:05;;;;;;;0.30;0.30;;;;;;;21.06;59.37;95423.38;5072238;28;20464;-69
2023/05/05 10:28:36;;;;;;;0.47;0.47;;;;;;;21.15;61.68;95422.16;5072355;28;20934;-70
2023/05/05 10:31:10;;;;;;;0.40;0.30;;;;;;;21.39;60.78;95422.22;5072481;28;20452;-68
2023/05/05 10:34:00;;;;;;;0.50;0.50;;;;;;;21.17;59.47;95427.25;5072396;28;20465;-69
2023/05/05 10:36:30;;;;;;;0.63;0.47;;;;;;;21.04;61.91;95414.81;5072143;28;20441;-71
2023/05/05 10:39:00;;;;;;;0.40;0.30;;;;;;;21.37;61.13;95419.09;5072724;28;20461;-72
2023/05/05 10:41:30;;;;;;;0.83;0.83;;;;;;;21.03;61.15;95414.03;5072325;28;20461;-71
2023/05/05 10:43:59;;;;;;;0.90;0.73;;;;;;;21.31;61.93;95408.84;5071108;28;20442;-71
2023/05/05 10:46:30;;;;;;;0.30;0.20;;;;;;;21.27;59.27;95419.53;5072094;28;20437;-70
2023/05/05 10:49:09;;;;;;;0.50;0.33;;;;;;;20.83;58.90;95323.25;5071923;28;20487;-71
2023/05/05 10:51:47;;;;;;;0.40;0.30;;;;;;;21.72;59.70;95407.88;5072113;28;20452;-71
2023/05/05 10:54:23;;;;;;;0.30;0.20;;;;;;;21.86;60.03;95421.81;5072230;28;20481;-70
2023/05/05 10:56:52;;;;;;;0.30;0.30;;;;;;;21.33;56.70;95423.56;5061084;28;20467;-71
2023/05/05 10:59:42;;;;;;;0.80;0.40;;;;;;;21.37;56.33;95423.69;5072014;28;20495;-65
2023/05/05 11:02:25;;;;;;;0.50;0.40;;;;;;;21.22;56.72;95352.34;5046811;28;20481;-72
2023/05/05 11:05:09;;;;;;;0.47;0.30;;;;;;;21.40;57.10;95414.94;5071650;28;20533;-71
2023/05/05 11:07:38;;;;;;;0.40;0.30;;;;;;;21.29;55.89;95408.38;5072206;28;20468;-71
2023/05/05 11:10:07;;;;;;;0.30;0.20;;;;;;;21.11;54.82;95417.78;5072059;28;20441;-72
2023/05/05 11:13:14;;;;;;;0.40;0.30;;;;;;;21.75;56.19;95412.59;5072327;28;20821;-72
2023/05/05 11:15:43;;;;;;;0.30;0.20;;;;;;;21.82;55.68;95418.22;5049972;28;20441;-72
2023/05/05 11:18:35;;;;;;;0.50;0.50;;;;;;;22.04;54.58;95413.16;5071731;28;20564;-72
2023/05/05 11:21:15;;;;;;;0.40;0.30;;;;;;;21.82;53.43;95369.66;5071709;28;20502;-72
2023/05/05 11:23:48;;;;;;;0.60;0.60;;;;;;;22.04;54.41;95412.38;5071778;28;20438;-72
2023/05/05 11:26:18;;;;;;;0.30;0.20;;;;;;;22.20;54.80;95402.47;5071180;28;21060;-72
2023/05/05 11:28:58;;;;;;;0.30;0.20;;;;;;;21.98;53.01;95397.56;5071058;28;20452;-72
2023/05/05 11:31:27;;;;;;;0.43;0.40;;;;;;;21.89;54.98;95404.97;5071302;28;20536;-71
2023/05/05 11:33:55;;;;;;;0.50;0.50;;;;;;;21.70;53.43;95407.44;5070685;28;20473;-71
2023/05/05 11:36:40;;;;;;;0.40;0.30;;;;;;;21.42;50.81;95405.38;5070788;28;20441;-70
2023/05/05 11:39:11;;;;;;;0.40;0.40;;;;;;;21.77;49.44;95394.16;5070683;28;20445;-69
2023/05/05 11:42:31;;;;;;;0.30;0.20;;;;;;;22.32;52.21;95393.53;5070666;28;20445;-69
2023/05/05 11:45:00;;;;;;;0.40;0.30;;;;;;;21.86;50.66;95392.16;5056501;28;20445;-68
2023/05/05 11:47:32;;;;;;;0.30;0.20;;;;;;;22.16;49.60;95380.00;5070909;28;20440;-68